createdAt,value
2019-05-07T00:01:23.849Z,11.53
2019-05-07T00:03:53.024Z,6.50
2019-05-07T00:06:23.066Z,6.63
2019-05-07T00:08:52.387Z,8.50
2019-05-07T00:11:22.375Z,5.30
2019-05-07T00:13:52.283Z,7.30
2019-05-07T00:16:22.440Z,10.00
2019-05-07T00:18:52.572Z,8.60
2019-05-07T00:21:23.343Z,8.50
2019-05-07T00:23:52.745Z,5.87
2019-05-07T00:26:23.078Z,4.90
2019-05-07T00:28:52.700Z,4.80
2019-05-07T00:31:23.281Z,6.87
2019-05-07T00:33:52.692Z,13.67
2019-05-07T00:36:27.858Z,6.93
2019-05-07T00:39:12.259Z,8.80
2019-05-07T00:41:46.984Z,6.83
2019-05-07T00:44:16.254Z,6.30
2019-05-07T00:46:45.208Z,5.40
2019-05-07T00:49:14.513Z,6.10
2019-05-07T00:51:43.516Z,3.97
2019-05-07T00:54:12.559Z,6.73
2019-05-07T00:56:42.879Z,6.03
2019-05-07T00:59:13.075Z,8.87
2019-05-07T01:01:43.209Z,5.13
2019-05-07T01:04:12.451Z,6.77
2019-05-07T01:06:42.402Z,8.33
2019-05-07T01:09:12.331Z,4.30
2019-05-07T01:11:42.948Z,6.53
2019-05-07T01:14:12.421Z,6.43
2019-05-07T01:16:42.207Z,8.10
2019-05-07T01:19:12.534Z,6.67
2019-05-07T01:21:43.272Z,6.73
2019-05-07T01:24:12.545Z,7.23
2019-05-07T01:26:42.593Z,6.40
2019-05-07T01:29:12.864Z,5.97
2019-05-07T01:31:48.386Z,6.60
2019-05-07T01:34:32.361Z,6.20
2019-05-07T01:37:02.653Z,6.07
2019-05-07T01:39:32.653Z,7.83
2019-05-07T01:42:02.288Z,7.03
2019-05-07T01:44:32.523Z,8.27
2019-05-07T01:47:02.501Z,5.30
2019-05-07T01:49:33.131Z,7.07
2019-05-07T01:52:02.759Z,6.07
2019-05-07T01:54:33.342Z,8.00
2019-05-07T01:57:02.999Z,8.60
2019-05-07T01:59:32.342Z,4.30
2019-05-07T02:02:12.129Z,10.50
2019-05-07T02:04:47.905Z,6.53
2019-05-07T02:07:27.459Z,7.60
2019-05-07T02:10:18.678Z,6.20
2019-05-07T02:12:47.820Z,7.40
2019-05-07T02:15:16.878Z,6.73
2019-05-07T02:17:45.959Z,6.47
2019-05-07T02:20:14.998Z,11.47
2019-05-07T02:22:44.060Z,7.50
2019-05-07T02:25:13.084Z,8.27
2019-05-07T02:27:42.268Z,7.73
2019-05-07T02:30:14.410Z,6.00
2019-05-07T02:32:43.194Z,5.27
2019-05-07T02:35:13.651Z,7.10
2019-05-07T02:37:55.484Z,5.37
2019-05-07T02:40:34.158Z,8.70
2019-05-07T02:43:03.254Z,5.43
2019-05-07T02:45:53.558Z,7.83
2019-05-07T02:48:25.769Z,5.07
2019-05-07T02:51:04.124Z,7.10
2019-05-07T02:53:43.064Z,7.60
2019-05-07T02:56:13.002Z,8.73
2019-05-07T02:58:43.413Z,6.07
2019-05-07T03:01:13.894Z,5.00
2019-05-07T03:03:44.932Z,7.37
2019-05-07T03:06:13.886Z,5.20
2019-05-07T03:08:43.980Z,8.00
2019-05-07T03:11:14.155Z,6.50
2019-05-07T03:13:43.597Z,8.47
2019-05-07T03:16:13.263Z,6.80
2019-05-07T03:18:43.813Z,7.30
2019-05-07T03:21:17.482Z,6.27
2019-05-07T03:24:03.540Z,5.70
2019-05-07T03:26:36.963Z,7.57
2019-05-07T03:29:13.007Z,9.20
2019-05-07T03:32:08.704Z,6.67
2019-05-07T03:34:57.763Z,8.83
2019-05-07T03:37:32.074Z,5.30
2019-05-07T03:39:58.686Z,6.47
2019-05-07T03:42:29.125Z,11.07
2019-05-07T03:45:04.592Z,6.47
2019-05-07T03:47:43.954Z,7.03
2019-05-07T03:50:14.635Z,8.17
2019-05-07T03:52:44.021Z,7.07
2019-05-07T03:55:14.466Z,7.67
2019-05-07T03:57:44.156Z,5.77
2019-05-07T04:00:13.502Z,6.83
2019-05-07T04:02:43.723Z,7.10
2019-05-07T04:05:13.926Z,6.87
2019-05-07T04:07:43.524Z,9.63
2019-05-07T04:10:14.765Z,6.07
2019-05-07T04:12:44.445Z,6.77
2019-05-07T04:15:33.228Z,5.80
2019-05-07T04:18:03.655Z,8.27
2019-05-07T04:20:33.548Z,4.70
2019-05-07T04:23:04.228Z,6.93
2019-05-07T04:26:04.417Z,5.53
2019-05-07T04:28:54.117Z,5.90
2019-05-07T04:31:23.352Z,7.93
2019-05-07T04:33:53.376Z,7.07
2019-05-07T04:36:33.814Z,7.20
2019-05-07T04:39:03.102Z,7.13
2019-05-07T04:41:32.984Z,7.23
2019-05-07T04:44:03.604Z,7.37
2019-05-07T04:46:33.496Z,7.63
2019-05-07T04:49:03.770Z,8.90
2019-05-07T04:51:43.380Z,6.77
2019-05-07T04:54:13.293Z,9.23
2019-05-07T04:56:43.629Z,7.30
2019-05-07T04:59:13.279Z,7.50
2019-05-07T05:01:47.640Z,7.70
2019-05-07T05:04:26.954Z,8.67
2019-05-07T05:06:48.831Z,5.63
2019-05-07T05:09:17.906Z,6.77
2019-05-07T05:11:46.938Z,9.53
2019-05-07T05:14:15.964Z,7.57
2019-05-07T05:16:45.990Z,7.83
2019-05-07T05:19:15.063Z,10.27
2019-05-07T05:22:09.026Z,12.60
2019-05-07T05:24:42.502Z,7.97
2019-05-07T05:27:12.175Z,12.47
2019-05-07T05:29:42.950Z,9.97
2019-05-07T05:32:12.214Z,7.17
2019-05-07T05:34:42.514Z,11.03
2019-05-07T05:37:12.001Z,12.03
2019-05-07T05:39:42.663Z,10.00
2019-05-07T05:42:22.610Z,11.77
2019-05-07T05:44:55.279Z,10.60
2019-05-07T05:47:25.619Z,8.93
2019-05-07T05:49:54.771Z,10.50
2019-05-07T05:52:32.842Z,12.53
2019-05-07T05:55:11.978Z,11.33
2019-05-07T05:58:07.836Z,9.77
2019-05-07T06:00:53.507Z,10.70
2019-05-07T06:03:44.410Z,11.13
2019-05-07T06:06:25.334Z,10.33
2019-05-07T06:09:01.858Z,9.60
2019-05-07T06:11:51.884Z,11.50
2019-05-07T06:14:33.035Z,13.47
2019-05-07T06:17:13.029Z,9.87
2019-05-07T06:19:58.194Z,8.27
2019-05-07T06:22:46.307Z,11.67
2019-05-07T06:25:24.305Z,8.10
2019-05-07T06:27:52.622Z,8.37
2019-05-07T06:30:22.728Z,9.77
2019-05-07T06:32:52.361Z,9.83
2019-05-07T06:35:23.047Z,9.70
2019-05-07T06:37:52.318Z,14.20
2019-05-07T06:40:43.159Z,13.90
2019-05-07T06:43:17.869Z,15.27
2019-05-07T06:45:51.738Z,14.07
2019-05-07T06:48:34.807Z,14.30
2019-05-07T06:50:57.459Z,13.37
2019-05-07T06:53:27.896Z,12.17
2019-05-07T06:55:57.725Z,12.20
2019-05-07T06:58:32.679Z,10.73
2019-05-07T07:01:18.661Z,13.47
2019-05-07T07:04:03.681Z,12.10
2019-05-07T07:06:39.389Z,7.70
2019-05-07T07:09:23.752Z,6.77
2019-05-07T07:11:57.022Z,18.33
2019-05-07T07:14:26.039Z,10.90
2019-05-07T07:16:55.040Z,8.30
2019-05-07T07:19:24.046Z,8.43
2019-05-07T07:21:53.108Z,7.43
2019-05-07T07:24:22.336Z,8.13
2019-05-07T07:26:52.824Z,7.67
2019-05-07T07:29:23.870Z,7.43
2019-05-07T07:31:56.462Z,5.43
2019-05-07T07:34:26.678Z,4.87
2019-05-07T07:37:12.823Z,6.43
2019-05-07T07:39:39.485Z,7.43
2019-05-07T07:42:12.395Z,6.17
2019-05-07T07:44:42.581Z,8.43
2019-05-07T07:47:12.932Z,5.47
2019-05-07T07:49:42.222Z,7.00
2019-05-07T07:52:12.189Z,6.77
2019-05-07T07:54:42.907Z,4.90
2019-05-07T07:57:37.139Z,6.53
2019-05-07T08:00:26.201Z,6.50
2019-05-07T08:02:59.469Z,5.53
2019-05-07T08:05:28.529Z,6.33
2019-05-07T08:07:57.531Z,6.87
2019-05-07T08:10:26.519Z,8.20
2019-05-07T08:12:55.587Z,6.87
2019-05-07T08:15:24.967Z,6.83
2019-05-07T08:17:54.329Z,6.00
2019-05-07T08:20:23.354Z,9.70
2019-05-07T08:22:52.670Z,8.57
2019-05-07T08:25:24.804Z,8.93
2019-05-07T08:27:53.829Z,8.63
2019-05-07T08:30:24.718Z,7.33
2019-05-07T08:33:04.105Z,9.57
2019-05-07T08:35:41.802Z,10.83
2019-05-07T08:38:12.936Z,10.93
2019-05-07T08:40:41.964Z,10.33
2019-05-07T08:43:12.598Z,8.70
2019-05-07T08:46:03.551Z,11.53
2019-05-07T08:48:37.361Z,10.83
2019-05-07T08:51:06.399Z,9.40
2019-05-07T08:53:35.458Z,9.50
2019-05-07T08:56:04.531Z,9.30
2019-05-07T08:58:34.218Z,8.27
2019-05-07T09:01:03.354Z,9.03
2019-05-07T09:03:44.591Z,6.63
2019-05-07T09:06:15.254Z,8.80
2019-05-07T09:08:44.305Z,8.70
2019-05-07T09:11:13.525Z,7.50
2019-05-07T09:13:42.498Z,9.70
2019-05-07T09:16:12.919Z,10.73
2019-05-07T09:18:42.312Z,9.63
2019-05-07T09:21:12.560Z,12.27
2019-05-07T09:23:42.423Z,10.27
2019-05-07T09:26:13.216Z,8.50
2019-05-07T09:29:07.179Z,8.57
2019-05-07T09:31:55.293Z,8.93
2019-05-07T09:34:25.476Z,8.07
2019-05-07T09:36:56.194Z,9.57
2019-05-07T09:39:25.267Z,10.50
2019-05-07T09:41:54.329Z,9.20
2019-05-07T09:44:23.389Z,9.47
2019-05-07T09:46:52.747Z,7.87
2019-05-07T09:49:22.265Z,6.43
2019-05-07T09:51:51.932Z,9.67
2019-05-07T09:54:22.986Z,6.77
2019-05-07T09:56:52.599Z,4.30
2019-05-07T09:59:21.858Z,5.90
2019-05-07T10:01:51.063Z,8.23
2019-05-07T10:04:22.229Z,10.27
2019-05-07T10:06:51.916Z,7.70
2019-05-07T10:09:22.312Z,8.40
2019-05-07T10:11:58.603Z,9.50
2019-05-07T10:14:27.594Z,6.53
2019-05-07T10:17:11.960Z,8.23
2019-05-07T10:19:41.736Z,8.07
2019-05-07T10:22:12.623Z,9.30
2019-05-07T10:24:41.893Z,6.97
2019-05-07T10:27:12.720Z,10.90
2019-05-07T10:29:42.813Z,10.50
2019-05-07T10:32:12.865Z,11.30
2019-05-07T10:34:42.314Z,9.03
2019-05-07T10:37:12.517Z,13.20
2019-05-07T10:39:43.043Z,12.13
2019-05-07T10:42:12.425Z,9.90
2019-05-07T10:44:52.466Z,8.33
2019-05-07T10:47:52.124Z,10.67
2019-05-07T10:50:35.426Z,7.70
2019-05-07T10:52:54.380Z,9.93
2019-05-07T10:55:24.561Z,11.13
2019-05-07T10:57:53.604Z,11.00
2019-05-07T11:00:24.442Z,8.13
2019-05-07T11:02:53.549Z,9.27
2019-05-07T11:05:22.536Z,8.43
2019-05-07T11:07:53.717Z,7.40
2019-05-07T11:10:22.465Z,10.00
2019-05-07T11:12:51.815Z,9.50
2019-05-07T11:15:22.115Z,8.13
2019-05-07T11:18:02.568Z,8.77
2019-05-07T11:20:32.083Z,10.30
2019-05-07T11:23:02.665Z,10.70
2019-05-07T11:25:33.156Z,11.60
2019-05-07T11:28:02.846Z,7.13
2019-05-07T11:30:32.183Z,11.13
2019-05-07T11:33:02.661Z,8.13
2019-05-07T11:35:32.143Z,11.90
2019-05-07T11:38:10.997Z,8.30
2019-05-07T11:40:34.706Z,8.53
2019-05-07T11:43:36.862Z,8.43
2019-05-07T11:46:15.801Z,10.07
2019-05-07T11:48:53.787Z,8.53
2019-05-07T11:51:29.357Z,8.10
2019-05-07T11:54:12.669Z,9.77
2019-05-07T11:56:42.382Z,12.83
2019-05-07T11:59:13.405Z,7.90
2019-05-07T12:01:47.719Z,8.60
2019-05-07T12:04:17.343Z,9.80
2019-05-07T12:06:46.366Z,11.10
2019-05-07T12:09:15.390Z,6.17
2019-05-07T12:11:44.351Z,8.20
2019-05-07T12:14:13.406Z,9.53
2019-05-07T12:16:42.775Z,9.07
2019-05-07T12:19:12.673Z,11.70
2019-05-07T12:21:42.674Z,8.73
2019-05-07T12:24:12.943Z,10.77
2019-05-07T12:26:43.749Z,8.27
2019-05-07T12:29:12.886Z,9.30
2019-05-07T12:32:02.649Z,9.47
2019-05-07T12:34:44.858Z,8.20
2019-05-07T12:37:14.042Z,10.43
2019-05-07T12:39:43.110Z,9.53
2019-05-07T12:42:12.257Z,8.73
2019-05-07T12:44:42.489Z,9.97
2019-05-07T12:47:12.068Z,9.43
2019-05-07T12:49:42.906Z,9.43
2019-05-07T12:52:22.635Z,11.93
2019-05-07T12:55:25.570Z,11.33
2019-05-07T12:57:54.611Z,10.10
2019-05-07T13:01:00.837Z,14.50
2019-05-07T13:04:02.649Z,10.60
2019-05-07T13:06:32.661Z,10.33
2019-05-07T13:09:01.783Z,11.17
2019-05-07T13:11:32.565Z,10.83
2019-05-07T13:14:02.135Z,11.80
2019-05-07T13:16:32.379Z,12.50
2019-05-07T13:19:01.947Z,12.63
2019-05-07T13:21:31.984Z,13.23
2019-05-07T13:24:02.746Z,10.87
2019-05-07T13:26:32.298Z,13.40
2019-05-07T13:29:02.588Z,10.37
2019-05-07T13:31:32.700Z,12.03
2019-05-07T13:34:02.928Z,12.97
2019-05-07T13:36:32.418Z,11.53
2019-05-07T13:39:23.324Z,10.70
2019-05-07T13:42:01.934Z,10.50
2019-05-07T13:44:49.359Z,11.13
2019-05-07T13:47:35.701Z,10.83
2019-05-07T13:50:05.580Z,13.80
2019-05-07T13:52:35.258Z,13.27
2019-05-07T13:55:04.703Z,11.63
2019-05-07T13:57:33.740Z,9.97
2019-05-07T14:00:05.018Z,11.60
2019-05-07T14:02:33.650Z,12.07
2019-05-07T14:05:02.686Z,13.17
2019-05-07T14:07:34.276Z,11.57
2019-05-07T14:10:22.514Z,10.37
2019-05-07T14:12:52.145Z,11.07
2019-05-07T14:15:23.182Z,11.77
2019-05-07T14:17:52.618Z,14.87
2019-05-07T14:20:22.978Z,11.00
2019-05-07T14:22:52.033Z,11.60
2019-05-07T14:25:21.891Z,13.13
2019-05-07T14:27:52.631Z,13.27
2019-05-07T14:30:24.538Z,10.00
2019-05-07T14:33:01.669Z,14.03
2019-05-07T14:35:40.421Z,13.83
2019-05-07T14:38:23.397Z,12.30
2019-05-07T14:40:52.430Z,11.87
2019-05-07T14:43:28.195Z,13.60
2019-05-07T14:45:57.354Z,8.20
2019-05-07T14:48:26.363Z,11.13
2019-05-07T14:50:55.467Z,9.37
2019-05-07T14:53:26.333Z,10.73
2019-05-07T14:55:55.321Z,8.53
2019-05-07T14:58:24.359Z,8.83
2019-05-07T15:00:53.510Z,12.10
2019-05-07T15:03:22.959Z,9.03
2019-05-07T15:05:52.589Z,8.20
2019-05-07T15:08:22.025Z,10.70
2019-05-07T15:10:52.522Z,7.67
2019-05-07T15:13:21.859Z,9.33
2019-05-07T15:15:52.514Z,11.90
2019-05-07T15:18:32.125Z,11.87
2019-05-07T15:21:01.880Z,8.87
2019-05-07T15:23:34.018Z,11.37
2019-05-07T15:26:04.808Z,8.67
2019-05-07T15:28:34.665Z,10.17
2019-05-07T15:31:12.266Z,10.33
2019-05-07T15:33:41.789Z,10.27
2019-05-07T15:36:11.987Z,11.07
2019-05-07T15:38:43.777Z,10.43
2019-05-07T15:41:12.922Z,10.40
2019-05-07T15:43:45.842Z,10.87
2019-05-07T15:46:12.890Z,12.60
2019-05-07T15:48:42.112Z,16.70
2019-05-07T15:51:11.889Z,11.27
2019-05-07T15:53:46.369Z,10.03
2019-05-07T15:56:15.375Z,9.40
2019-05-07T15:58:44.517Z,9.17
2019-05-07T16:01:13.597Z,9.80
2019-05-07T16:03:44.670Z,9.23
2019-05-07T16:06:13.635Z,7.73
2019-05-07T16:08:49.821Z,10.37
2019-05-07T16:11:18.852Z,10.73
2019-05-07T16:14:08.443Z,10.27
2019-05-07T16:17:03.698Z,9.57
2019-05-07T16:19:32.750Z,9.90
2019-05-07T16:22:06.618Z,9.23
2019-05-07T16:24:35.693Z,7.83
2019-05-07T16:27:05.225Z,8.70
2019-05-07T16:29:35.864Z,10.47
2019-05-07T16:32:05.142Z,8.17
2019-05-07T16:34:34.099Z,10.10
2019-05-07T16:37:06.830Z,9.70
2019-05-07T16:39:33.894Z,10.77
2019-05-07T16:42:02.924Z,9.50
2019-05-07T16:44:33.119Z,11.57
2019-05-07T16:47:02.814Z,7.77
2019-05-07T16:49:32.057Z,8.83
2019-05-07T16:52:01.807Z,8.37
2019-05-07T16:54:31.017Z,12.03
2019-05-07T16:57:19.438Z,9.50
2019-05-07T16:59:48.514Z,11.30
2019-05-07T17:02:22.671Z,9.70
2019-05-07T17:05:12.563Z,9.23
2019-05-07T17:07:56.325Z,8.83
2019-05-07T17:10:25.371Z,9.60
2019-05-07T17:12:54.570Z,11.30
2019-05-07T17:15:23.675Z,9.67
2019-05-07T17:17:59.245Z,7.77
2019-05-07T17:20:28.297Z,9.30
2019-05-07T17:22:57.362Z,9.90
2019-05-07T17:25:38.416Z,11.03
2019-05-07T17:28:07.644Z,10.67
2019-05-07T17:30:37.703Z,10.10
2019-05-07T17:33:06.975Z,10.77
2019-05-07T17:35:36.007Z,8.20
2019-05-07T17:38:09.416Z,9.47
2019-05-07T17:40:35.717Z,8.87
2019-05-07T17:43:04.680Z,8.57
2019-05-07T17:45:33.678Z,11.40
2019-05-07T17:48:03.218Z,11.60
2019-05-07T17:50:54.701Z,8.33
2019-05-07T17:53:23.851Z,7.77
2019-05-07T17:55:53.092Z,10.40
2019-05-07T17:58:22.162Z,10.27
2019-05-07T18:00:54.745Z,14.13
2019-05-07T18:03:48.921Z,7.30
2019-05-07T18:06:17.940Z,8.50
2019-05-07T18:08:47.042Z,11.60
2019-05-07T18:11:20.759Z,9.83
2019-05-07T18:13:46.925Z,10.50
2019-05-07T18:16:28.280Z,9.97
2019-05-07T18:18:57.381Z,10.77
2019-05-07T18:21:26.581Z,10.47
2019-05-07T18:23:55.747Z,13.50
2019-05-07T18:26:30.001Z,12.30
2019-05-07T18:28:55.722Z,10.53
2019-05-07T18:31:45.356Z,13.40
2019-05-07T18:34:14.467Z,10.50
2019-05-07T18:36:45.031Z,12.37
2019-05-07T18:39:14.074Z,9.53
2019-05-07T18:41:43.340Z,12.53
2019-05-07T18:44:15.319Z,14.63
2019-05-07T18:46:43.147Z,13.63
2019-05-07T18:49:12.809Z,11.73
2019-05-07T18:51:42.661Z,12.43
2019-05-07T18:54:15.999Z,12.77
2019-05-07T18:56:44.564Z,11.93
2019-05-07T18:59:16.372Z,10.20
2019-05-07T19:01:45.473Z,11.77
2019-05-07T19:04:14.615Z,11.03
2019-05-07T19:06:43.738Z,13.23
2019-05-07T19:09:12.902Z,10.83
2019-05-07T19:11:42.740Z,12.17
2019-05-07T19:14:13.415Z,12.40
2019-05-07T19:16:43.168Z,10.73
2019-05-07T19:19:17.358Z,13.63
2019-05-07T19:21:46.530Z,11.87
2019-05-07T19:24:15.619Z,12.93
2019-05-07T19:26:46.000Z,11.47
2019-05-07T19:29:16.838Z,11.23
2019-05-07T19:31:45.980Z,12.23
2019-05-07T19:34:15.043Z,12.53
2019-05-07T19:36:44.140Z,12.77
2019-05-07T19:39:13.344Z,17.77
2019-05-07T19:41:43.090Z,13.33
2019-05-07T19:44:12.759Z,11.77
2019-05-07T19:46:41.944Z,12.83
2019-05-07T19:49:11.014Z,14.03
2019-05-07T19:51:40.189Z,14.17
2019-05-07T19:54:09.361Z,10.93
2019-05-07T19:56:38.771Z,13.90
2019-05-07T19:59:07.856Z,14.20
2019-05-07T20:01:42.635Z,12.47
2019-05-07T20:04:13.271Z,12.70
2019-05-07T20:07:02.814Z,11.93
2019-05-07T20:09:34.725Z,14.03
2019-05-07T20:12:03.879Z,14.13
2019-05-07T20:14:33.298Z,12.87
2019-05-07T20:17:03.541Z,14.30
2019-05-07T20:19:32.990Z,14.73
2019-05-07T20:22:02.591Z,17.07
2019-05-07T20:24:32.954Z,13.93
2019-05-07T20:27:03.028Z,12.83
2019-05-07T20:29:32.455Z,15.93
2019-05-07T20:32:01.548Z,14.07
2019-05-07T20:34:32.711Z,15.73
2019-05-07T20:37:02.044Z,14.07
2019-05-07T20:39:32.293Z,12.33
2019-05-07T20:42:03.072Z,14.63
2019-05-07T20:44:32.585Z,14.17
2019-05-07T20:47:01.870Z,15.83
2019-05-07T20:49:32.052Z,13.63
2019-05-07T20:52:01.318Z,12.90
2019-05-07T20:54:37.694Z,16.13
2019-05-07T20:57:13.201Z,15.13
2019-05-07T20:59:42.450Z,15.53
2019-05-07T21:02:11.954Z,15.80
2019-05-07T21:04:42.486Z,17.23
2019-05-07T21:07:12.009Z,18.23
2019-05-07T21:09:42.233Z,19.10
2019-05-07T21:12:12.835Z,17.20
2019-05-07T21:14:42.227Z,14.33
2019-05-07T21:17:11.920Z,15.30
2019-05-07T21:19:42.850Z,16.70
2019-05-07T21:22:12.993Z,20.37
2019-05-07T21:24:43.050Z,19.77
2019-05-07T21:27:12.421Z,14.53
2019-05-07T21:29:42.269Z,18.10
2019-05-07T21:32:12.427Z,17.90
2019-05-07T21:34:42.218Z,16.43
2019-05-07T21:37:12.664Z,17.90
2019-05-07T21:39:42.463Z,18.87
2019-05-07T21:42:13.920Z,18.17
2019-05-07T21:44:43.067Z,14.77
2019-05-07T21:47:12.827Z,16.47
2019-05-07T21:49:43.063Z,17.03
2019-05-07T21:52:12.797Z,17.53
2019-05-07T21:54:48.721Z,15.70
2019-05-07T21:57:43.172Z,16.27
2019-05-07T22:00:34.358Z,18.30
2019-05-07T22:03:06.842Z,17.63
2019-05-07T22:05:36.026Z,18.53
2019-05-07T22:08:05.106Z,15.87
2019-05-07T22:10:34.257Z,16.20
2019-05-07T22:13:03.399Z,17.40
2019-05-07T22:15:32.501Z,18.57
2019-05-07T22:18:02.684Z,18.67
2019-05-07T22:20:32.054Z,16.37
2019-05-07T22:23:02.859Z,18.00
2019-05-07T22:25:32.840Z,16.23
2019-05-07T22:28:04.577Z,19.63
2019-05-07T22:30:41.894Z,17.33
2019-05-07T22:33:16.430Z,15.60
2019-05-07T22:35:45.470Z,17.00
2019-05-07T22:38:16.329Z,17.77
2019-05-07T22:40:45.426Z,17.90
2019-05-07T22:43:14.465Z,16.47
2019-05-07T22:45:43.483Z,16.73
2019-05-07T22:48:12.501Z,16.33
2019-05-07T22:50:42.356Z,19.10
2019-05-07T22:53:12.623Z,18.10
2019-05-07T22:55:41.945Z,18.53
2019-05-07T22:58:17.814Z,15.33
2019-05-07T23:00:50.886Z,15.27
2019-05-07T23:03:19.985Z,16.53
2019-05-07T23:05:49.126Z,16.83
2019-05-07T23:08:18.209Z,16.63
2019-05-07T23:10:47.251Z,16.67
2019-05-07T23:13:16.186Z,16.00
2019-05-07T23:15:45.228Z,17.00
2019-05-07T23:18:14.297Z,16.53
2019-05-07T23:20:43.418Z,16.37
2019-05-07T23:23:14.166Z,14.93
2019-05-07T23:25:43.234Z,14.20
2019-05-07T23:28:12.622Z,16.17
2019-05-07T23:30:42.124Z,17.47
2019-05-07T23:33:12.598Z,17.10
2019-05-07T23:35:42.162Z,15.87
2019-05-07T23:38:12.207Z,17.07
2019-05-07T23:41:07.144Z,16.17
2019-05-07T23:43:36.449Z,16.93
2019-05-07T23:46:05.443Z,15.83
2019-05-07T23:48:34.467Z,19.57
2019-05-07T23:51:03.521Z,16.97
2019-05-07T23:53:32.588Z,20.20
2019-05-07T23:56:02.817Z,17.70
2019-05-07T23:58:32.642Z,17.20
